Terminal Aerodrome Forecast
Issued by NWS

Home | Current Version | Previous Version | Text Only | Print | Product List | Glossary On
Versions: 1 2 3 4 5 6 7 8 9 10 11 12 13 14 15
000
FTUS43 KAPX 221726
TAFPLN
TAF
KPLN 221726Z 2218/2318 20011KT P6SM BKN070
     FM222000 21010KT P6SM -SHRA OVC040
     FM222200 25009KT 4SM -SHRA OVC027
     FM222300 28008KT 4SM -SHRA OVC025
     FM230100 30006KT 3SM -SHRA BR OVC010
     FM230600 VRB03KT 2SM -SHRA BR OVC010
     FM230900 00000KT 3SM BR VCSH BKN015
     FM231400 21004KT P6SM SCT045=

USA.gov is the U.S. government's official web portal to all federal, state and local government web resources and services.